sensor_id;sensor_type;location;lat;lon;timestamp;P1;durP1;ratioP1;P2;durP2;ratioP2
31872;SDS011;22407;42.820;23.374;2022-10-16T15:31:09;6.43;;;2.40;;
31872;SDS011;22407;42.820;23.374;2022-10-16T15:33:35;11.80;;;2.87;;
31872;SDS011;22407;42.820;23.374;2022-10-16T15:36:00;6.47;;;2.50;;
31872;SDS011;22407;42.820;23.374;2022-10-16T15:38:26;6.47;;;2.50;;
31872;SDS011;22407;42.820;23.374;2022-10-16T15:40:52;7.73;;;2.60;;
31872;SDS011;22407;42.820;23.374;2022-10-16T15:43:17;8.35;;;2.67;;
31872;SDS011;22407;42.820;23.374;2022-10-16T15:45:44;6.13;;;2.40;;
31872;SDS011;22407;42.820;23.374;2022-10-16T15:48:12;7.23;;;2.80;;
31872;SDS011;22407;42.820;23.374;2022-10-16T15:50:38;7.57;;;2.72;;
31872;SDS011;22407;42.820;23.374;2022-10-16T15:53:04;5.65;;;2.30;;
31872;SDS011;22407;42.820;23.374;2022-10-16T15:55:29;6.13;;;2.60;;
31872;SDS011;22407;42.820;23.374;2022-10-16T15:57:55;6.82;;;2.70;;
31872;SDS011;22407;42.820;23.374;2022-10-16T16:00:20;6.00;;;2.30;;
31872;SDS011;22407;42.820;23.374;2022-10-16T16:02:50;7.60;;;2.53;;
31872;SDS011;22407;42.820;23.374;2022-10-16T16:05:16;9.02;;;3.10;;
31872;SDS011;22407;42.820;23.374;2022-10-16T16:07:42;8.05;;;3.33;;
31872;SDS011;22407;42.820;23.374;2022-10-16T16:10:09;8.53;;;3.77;;
31872;SDS011;22407;42.820;23.374;2022-10-16T16:12:35;10.95;;;4.50;;
31872;SDS011;22407;42.820;23.374;2022-10-16T16:15:00;9.60;;;4.10;;
31872;SDS011;22407;42.820;23.374;2022-10-16T16:17:25;8.35;;;3.42;;
31872;SDS011;22407;42.820;23.374;2022-10-16T16:19:51;8.10;;;3.43;;
31872;SDS011;22407;42.820;23.374;2022-10-16T16:22:19;8.60;;;3.00;;
31872;SDS011;22407;42.820;23.374;2022-10-16T16:24:45;8.88;;;3.60;;
31872;SDS011;22407;42.820;23.374;2022-10-16T16:27:10;8.10;;;3.40;;
31872;SDS011;22407;42.820;23.374;2022-10-16T16:29:35;8.53;;;3.60;;
31872;SDS011;22407;42.820;23.374;2022-10-16T16:32:01;8.35;;;3.50;;
31872;SDS011;22407;42.820;23.374;2022-10-16T16:34:27;8.63;;;3.60;;
31872;SDS011;22407;42.820;23.374;2022-10-16T16:36:53;7.72;;;3.30;;
31872;SDS011;22407;42.820;23.374;2022-10-16T16:39:18;8.27;;;3.38;;
31872;SDS011;22407;42.820;23.374;2022-10-16T16:41:43;8.17;;;3.60;;
31872;SDS011;22407;42.820;23.374;2022-10-16T16:44:10;9.85;;;4.00;;
31872;SDS011;22407;42.820;23.374;2022-10-16T16:46:36;7.72;;;3.45;;
31872;SDS011;22407;42.820;23.374;2022-10-16T16:49:02;7.67;;;3.40;;
31872;SDS011;22407;42.820;23.374;2022-10-16T16:51:27;8.17;;;3.50;;
31872;SDS011;22407;42.820;23.374;2022-10-16T16:53:53;8.60;;;3.50;;
31872;SDS011;22407;42.820;23.374;2022-10-16T16:56:19;8.27;;;3.17;;
31872;SDS011;22407;42.820;23.374;2022-10-16T16:58:45;8.30;;;3.40;;
31872;SDS011;22407;42.820;23.374;2022-10-16T17:01:11;8.25;;;3.33;;
31872;SDS011;22407;42.820;23.374;2022-10-16T17:03:36;9.27;;;4.13;;
31872;SDS011;22407;42.820;23.374;2022-10-16T17:06:06;10.57;;;4.07;;
31872;SDS011;22407;42.820;23.374;2022-10-16T17:08:32;9.50;;;4.30;;
31872;SDS011;22407;42.820;23.374;2022-10-16T17:10:58;7.70;;;3.60;;
31872;SDS011;22407;42.820;23.374;2022-10-16T17:13:24;9.37;;;4.03;;
31872;SDS011;22407;42.820;23.374;2022-10-16T17:15:50;8.05;;;3.80;;
31872;SDS011;22407;42.820;23.374;2022-10-16T17:18:15;11.70;;;5.25;;
31872;SDS011;22407;42.820;23.374;2022-10-16T17:20:41;8.13;;;3.63;;
31872;SDS011;22407;42.820;23.374;2022-10-16T17:23:07;8.20;;;3.67;;
31872;SDS011;22407;42.820;23.374;2022-10-16T17:25:35;9.32;;;4.53;;
31872;SDS011;22407;42.820;23.374;2022-10-16T17:28:00;7.30;;;3.30;;
31872;SDS011;22407;42.820;23.374;2022-10-16T17:30:26;7.63;;;3.40;;
31872;SDS011;22407;42.820;23.374;2022-10-16T17:32:51;7.47;;;3.17;;
31872;SDS011;22407;42.820;23.374;2022-10-16T17:35:16;9.33;;;4.33;;
31872;SDS011;22407;42.820;23.374;2022-10-16T17:37:42;13.48;;;6.00;;
31872;SDS011;22407;42.820;23.374;2022-10-16T17:40:08;15.97;;;6.70;;
31872;SDS011;22407;42.820;23.374;2022-10-16T17:42:33;25.13;;;10.73;;
31872;SDS011;22407;42.820;23.374;2022-10-16T17:44:59;14.40;;;6.03;;
31872;SDS011;22407;42.820;23.374;2022-10-16T17:47:24;71.75;;;26.75;;
31872;SDS011;22407;42.820;23.374;2022-10-16T17:49:49;29.73;;;10.77;;
31872;SDS011;22407;42.820;23.374;2022-10-16T17:52:15;86.93;;;32.17;;
31872;SDS011;22407;42.820;23.374;2022-10-16T17:54:40;40.78;;;15.20;;
31872;SDS011;22407;42.820;23.374;2022-10-16T17:57:06;8.07;;;3.50;;
31872;SDS011;22407;42.820;23.374;2022-10-16T17:59:31;12.33;;;5.30;;
31872;SDS011;22407;42.820;23.374;2022-10-16T18:01:57;38.87;;;14.80;;
31872;SDS011;22407;42.820;23.374;2022-10-16T18:04:22;43.77;;;17.00;;
31872;SDS011;22407;42.820;23.374;2022-10-16T18:06:47;27.20;;;12.67;;
31872;SDS011;22407;42.820;23.374;2022-10-16T18:09:14;30.77;;;12.93;;
31872;SDS011;22407;42.820;23.374;2022-10-16T18:11:42;27.77;;;12.63;;
31872;SDS011;22407;42.820;23.374;2022-10-16T18:14:07;16.95;;;8.35;;
31872;SDS011;22407;42.820;23.374;2022-10-16T18:16:32;18.03;;;8.70;;
31872;SDS011;22407;42.820;23.374;2022-10-16T18:19:00;16.15;;;8.43;;
31872;SDS011;22407;42.820;23.374;2022-10-16T18:21:26;13.23;;;6.20;;
31872;SDS011;22407;42.820;23.374;2022-10-16T18:23:51;14.13;;;6.43;;
31872;SDS011;22407;42.820;23.374;2022-10-16T18:26:17;13.90;;;6.83;;
31872;SDS011;22407;42.820;23.374;2022-10-16T18:28:42;11.30;;;4.53;;
31872;SDS011;22407;42.820;23.374;2022-10-16T18:31:10;11.48;;;4.60;;
31872;SDS011;22407;42.820;23.374;2022-10-16T18:33:36;16.23;;;7.80;;
31872;SDS011;22407;42.820;23.374;2022-10-16T18:36:02;13.07;;;6.75;;
31872;SDS011;22407;42.820;23.374;2022-10-16T18:38:28;17.30;;;8.35;;
31872;SDS011;22407;42.820;23.374;2022-10-16T18:40:53;16.38;;;7.80;;
31872;SDS011;22407;42.820;23.374;2022-10-16T18:43:19;21.27;;;10.07;;
31872;SDS011;22407;42.820;23.374;2022-10-16T18:45:53;14.35;;;6.57;;
31872;SDS011;22407;42.820;23.374;2022-10-16T18:48:19;13.13;;;4.72;;
31872;SDS011;22407;42.820;23.374;2022-10-16T18:50:44;12.60;;;5.70;;
31872;SDS011;22407;42.820;23.374;2022-10-16T18:53:09;15.00;;;6.43;;
31872;SDS011;22407;42.820;23.374;2022-10-16T18:55:35;14.83;;;7.13;;
31872;SDS011;22407;42.820;23.374;2022-10-16T18:58:00;15.13;;;6.63;;
31872;SDS011;22407;42.820;23.374;2022-10-16T19:00:25;13.70;;;6.50;;
31872;SDS011;22407;42.820;23.374;2022-10-16T19:02:51;14.27;;;6.40;;
31872;SDS011;22407;42.820;23.374;2022-10-16T19:05:16;13.13;;;5.90;;
31872;SDS011;22407;42.820;23.374;2022-10-16T19:07:43;14.57;;;6.37;;
31872;SDS011;22407;42.820;23.374;2022-10-16T19:10:09;14.53;;;6.57;;
31872;SDS011;22407;42.820;23.374;2022-10-16T19:12:34;13.68;;;5.82;;
31872;SDS011;22407;42.820;23.374;2022-10-16T19:15:00;13.23;;;5.83;;
31872;SDS011;22407;42.820;23.374;2022-10-16T19:17:25;14.53;;;5.77;;
31872;SDS011;22407;42.820;23.374;2022-10-16T19:19:50;12.60;;;4.80;;
31872;SDS011;22407;42.820;23.374;2022-10-16T19:22:16;20.67;;;9.47;;
31872;SDS011;22407;42.820;23.374;2022-10-16T19:24:52;19.10;;;8.20;;
31872;SDS011;22407;42.820;23.374;2022-10-16T19:27:17;16.70;;;5.90;;
31872;SDS011;22407;42.820;23.374;2022-10-16T19:29:43;14.63;;;5.93;;
31872;SDS011;22407;42.820;23.374;2022-10-16T19:32:08;14.83;;;6.70;;
31872;SDS011;22407;42.820;23.374;2022-10-16T19:34:33;14.10;;;5.90;;
31872;SDS011;22407;42.820;23.374;2022-10-16T19:36:59;10.43;;;4.27;;
31872;SDS011;22407;42.820;23.374;2022-10-16T19:39:24;11.05;;;4.45;;
31872;SDS011;22407;42.820;23.374;2022-10-16T19:41:50;15.63;;;6.50;;
31872;SDS011;22407;42.820;23.374;2022-10-16T19:44:16;15.37;;;6.23;;
31872;SDS011;22407;42.820;23.374;2022-10-16T19:46:41;15.52;;;5.55;;
31872;SDS011;22407;42.820;23.374;2022-10-16T19:49:08;13.60;;;5.97;;
31872;SDS011;22407;42.820;23.374;2022-10-16T19:51:34;9.40;;;4.13;;
31872;SDS011;22407;42.820;23.374;2022-10-16T19:54:01;10.37;;;4.10;;
31872;SDS011;22407;42.820;23.374;2022-10-16T19:56:27;9.50;;;3.77;;
31872;SDS011;22407;42.820;23.374;2022-10-16T19:58:54;11.97;;;4.13;;
31872;SDS011;22407;42.820;23.374;2022-10-16T20:01:19;10.60;;;4.55;;
31872;SDS011;22407;42.820;23.374;2022-10-16T20:03:46;10.87;;;4.10;;
31872;SDS011;22407;42.820;23.374;2022-10-16T20:06:11;13.43;;;4.17;;
31872;SDS011;22407;42.820;23.374;2022-10-16T20:08:38;14.13;;;4.65;;
31872;SDS011;22407;42.820;23.374;2022-10-16T20:11:04;16.30;;;5.10;;
31872;SDS011;22407;42.820;23.374;2022-10-16T20:13:30;11.13;;;4.13;;
31872;SDS011;22407;42.820;23.374;2022-10-16T20:15:55;12.37;;;4.00;;
31872;SDS011;22407;42.820;23.374;2022-10-16T20:18:20;10.40;;;4.07;;
31872;SDS011;22407;42.820;23.374;2022-10-16T20:20:47;9.90;;;4.20;;
31872;SDS011;22407;42.820;23.374;2022-10-16T20:23:13;9.32;;;4.13;;
31872;SDS011;22407;42.820;23.374;2022-10-16T20:25:39;10.53;;;4.07;;
31872;SDS011;22407;42.820;23.374;2022-10-16T20:28:06;9.07;;;3.93;;
31872;SDS011;22407;42.820;23.374;2022-10-16T20:30:35;8.47;;;3.53;;
31872;SDS011;22407;42.820;23.374;2022-10-16T20:33:00;8.77;;;3.67;;
31872;SDS011;22407;42.820;23.374;2022-10-16T20:35:26;9.47;;;3.70;;
31872;SDS011;22407;42.820;23.374;2022-10-16T20:37:51;8.83;;;4.03;;
31872;SDS011;22407;42.820;23.374;2022-10-16T20:40:16;9.70;;;4.00;;
31872;SDS011;22407;42.820;23.374;2022-10-16T20:42:42;10.20;;;4.20;;
31872;SDS011;22407;42.820;23.374;2022-10-16T20:45:07;10.73;;;4.50;;
31872;SDS011;22407;42.820;23.374;2022-10-16T20:47:32;9.50;;;3.90;;
31872;SDS011;22407;42.820;23.374;2022-10-16T20:49:58;9.80;;;4.03;;
31872;SDS011;22407;42.820;23.374;2022-10-16T20:52:23;10.20;;;3.90;;
31872;SDS011;22407;42.820;23.374;2022-10-16T20:54:49;10.17;;;4.00;;
31872;SDS011;22407;42.820;23.374;2022-10-16T20:57:14;10.17;;;4.27;;
31872;SDS011;22407;42.820;23.374;2022-10-16T20:59:40;10.07;;;4.13;;
31872;SDS011;22407;42.820;23.374;2022-10-16T21:02:05;12.23;;;4.23;;
31872;SDS011;22407;42.820;23.374;2022-10-16T21:04:32;10.70;;;4.17;;
31872;SDS011;22407;42.820;23.374;2022-10-16T21:06:57;11.82;;;4.13;;
31872;SDS011;22407;42.820;23.374;2022-10-16T21:09:24;9.85;;;3.88;;
31872;SDS011;22407;42.820;23.374;2022-10-16T21:11:49;9.30;;;4.00;;
31872;SDS011;22407;42.820;23.374;2022-10-16T21:14:15;10.30;;;3.93;;
31872;SDS011;22407;42.820;23.374;2022-10-16T21:16:40;10.18;;;4.10;;
31872;SDS011;22407;42.820;23.374;2022-10-16T21:19:06;10.37;;;3.87;;
31872;SDS011;22407;42.820;23.374;2022-10-16T21:21:32;10.30;;;4.07;;
31872;SDS011;22407;42.820;23.374;2022-10-16T21:23:58;10.73;;;3.92;;
31872;SDS011;22407;42.820;23.374;2022-10-16T21:26:24;9.10;;;3.97;;
31872;SDS011;22407;42.820;23.374;2022-10-16T21:28:54;10.27;;;4.00;;
31872;SDS011;22407;42.820;23.374;2022-10-16T21:31:20;9.40;;;3.85;;
31872;SDS011;22407;42.820;23.374;2022-10-16T21:33:46;10.55;;;4.30;;
31872;SDS011;22407;42.820;23.374;2022-10-16T21:36:22;11.70;;;4.17;;
31872;SDS011;22407;42.820;23.374;2022-10-16T21:38:47;11.00;;;4.15;;
31872;SDS011;22407;42.820;23.374;2022-10-16T21:41:14;12.13;;;4.30;;
31872;SDS011;22407;42.820;23.374;2022-10-16T21:43:40;12.35;;;4.32;;
31872;SDS011;22407;42.820;23.374;2022-10-16T21:46:05;12.20;;;4.57;;
31872;SDS011;22407;42.820;23.374;2022-10-16T21:48:31;10.07;;;4.38;;
31872;SDS011;22407;42.820;23.374;2022-10-16T21:50:56;10.83;;;4.27;;
31872;SDS011;22407;42.820;23.374;2022-10-16T21:53:22;12.40;;;4.90;;
31872;SDS011;22407;42.820;23.374;2022-10-16T21:55:47;10.50;;;4.27;;
31872;SDS011;22407;42.820;23.374;2022-10-16T21:58:12;11.37;;;4.57;;
31872;SDS011;22407;42.820;23.374;2022-10-16T22:00:38;11.15;;;4.60;;
31872;SDS011;22407;42.820;23.374;2022-10-16T22:03:03;11.43;;;4.03;;
31872;SDS011;22407;42.820;23.374;2022-10-16T22:05:29;11.10;;;4.10;;
31872;SDS011;22407;42.820;23.374;2022-10-16T22:07:54;11.13;;;4.13;;
31872;SDS011;22407;42.820;23.374;2022-10-16T22:10:19;9.27;;;4.20;;
31872;SDS011;22407;42.820;23.374;2022-10-16T22:12:45;10.33;;;4.27;;
31872;SDS011;22407;42.820;23.374;2022-10-16T22:15:10;9.93;;;3.80;;
31872;SDS011;22407;42.820;23.374;2022-10-16T22:17:35;10.83;;;4.27;;
31872;SDS011;22407;42.820;23.374;2022-10-16T22:20:01;10.43;;;4.47;;
31872;SDS011;22407;42.820;23.374;2022-10-16T22:22:27;10.40;;;4.77;;
31872;SDS011;22407;42.820;23.374;2022-10-16T22:24:52;10.85;;;4.75;;
31872;SDS011;22407;42.820;23.374;2022-10-16T22:27:17;11.20;;;4.90;;
31872;SDS011;22407;42.820;23.374;2022-10-16T22:29:43;12.13;;;4.70;;
31872;SDS011;22407;42.820;23.374;2022-10-16T22:32:08;10.60;;;4.10;;
31872;SDS011;22407;42.820;23.374;2022-10-16T22:34:34;10.07;;;4.33;;
31872;SDS011;22407;42.820;23.374;2022-10-16T22:36:59;10.17;;;4.40;;
31872;SDS011;22407;42.820;23.374;2022-10-16T22:39:24;10.63;;;4.40;;
31872;SDS011;22407;42.820;23.374;2022-10-16T22:41:52;9.63;;;3.78;;
31872;SDS011;22407;42.820;23.374;2022-10-16T22:44:17;10.83;;;4.00;;
31872;SDS011;22407;42.820;23.374;2022-10-16T22:46:42;9.70;;;4.00;;
31872;SDS011;22407;42.820;23.374;2022-10-16T22:49:08;9.13;;;3.90;;
31872;SDS011;22407;42.820;23.374;2022-10-16T22:51:33;10.53;;;4.43;;
31872;SDS011;22407;42.820;23.374;2022-10-16T22:53:59;9.57;;;4.03;;
31872;SDS011;22407;42.820;23.374;2022-10-16T22:56:24;11.10;;;4.80;;
31872;SDS011;22407;42.820;23.374;2022-10-16T22:58:49;10.18;;;3.88;;
31872;SDS011;22407;42.820;23.374;2022-10-16T23:01:26;10.50;;;4.20;;
31872;SDS011;22407;42.820;23.374;2022-10-16T23:03:52;11.27;;;4.22;;
31872;SDS011;22407;42.820;23.374;2022-10-16T23:06:17;10.13;;;3.90;;
31872;SDS011;22407;42.820;23.374;2022-10-16T23:08:43;9.55;;;4.32;;
31872;SDS011;22407;42.820;23.374;2022-10-16T23:11:09;10.37;;;4.00;;
31872;SDS011;22407;42.820;23.374;2022-10-16T23:13:35;10.20;;;4.07;;
31872;SDS011;22407;42.820;23.374;2022-10-16T23:16:02;10.43;;;4.50;;
31872;SDS011;22407;42.820;23.374;2022-10-16T23:18:27;9.88;;;4.53;;
31872;SDS011;22407;42.820;23.374;2022-10-16T23:20:53;9.53;;;4.33;;
31872;SDS011;22407;42.820;23.374;2022-10-16T23:23:18;9.80;;;4.53;;
31872;SDS011;22407;42.820;23.374;2022-10-16T23:25:44;9.83;;;5.63;;
31872;SDS011;22407;42.820;23.374;2022-10-16T23:28:10;10.82;;;6.00;;
31872;SDS011;22407;42.820;23.374;2022-10-16T23:30:37;11.77;;;7.37;;
31872;SDS011;22407;42.820;23.374;2022-10-16T23:33:02;10.13;;;5.25;;
31872;SDS011;22407;42.820;23.374;2022-10-16T23:35:27;11.57;;;7.63;;
31872;SDS011;22407;42.820;23.374;2022-10-16T23:37:53;12.50;;;6.78;;
31872;SDS011;22407;42.820;23.374;2022-10-16T23:40:18;12.57;;;11.23;;
31872;SDS011;22407;42.820;23.374;2022-10-16T23:42:43;15.13;;;13.53;;
31872;SDS011;22407;42.820;23.374;2022-10-16T23:45:09;18.00;;;16.30;;
31872;SDS011;22407;42.820;23.374;2022-10-16T23:47:34;18.02;;;16.30;;
31872;SDS011;22407;42.820;23.374;2022-10-16T23:50:00;17.53;;;15.83;;
31872;SDS011;22407;42.820;23.374;2022-10-16T23:52:25;19.63;;;17.93;;
31872;SDS011;22407;42.820;23.374;2022-10-16T23:54:50;16.75;;;15.05;;
31872;SDS011;22407;42.820;23.374;2022-10-16T23:57:16;19.03;;;17.33;;
31872;SDS011;22407;42.820;23.374;2022-10-16T23:59:41;17.77;;;16.07;;
